Orenge 7 — JL6148 — position and weather

sailwx.info

Track history (hours):
 
Tides and Currents Weather Stations Pressure Air Temp Water Temp Dewpoint Dewpoint Depression Visibility Wind Speed Wind Dir Waves Ship Positions

Orenge 7

Last reported at 2016-Aug-24 04:29 UTC. Time now 2016-Aug-24 06:46 UTC.
Position N 34°37' E 135°26'.

Length 163 m; draft 4.9 m.

Type: Passenger vessel. MMSI: 431500186.

Date/timePositionNaut miles runAvg speedWind from/ knotsBaromVisibWave heightAir tempDewpointWater temp
2016-Aug-24 04:29N 34°37' E 135°26'0 0.0
2016-Aug-24 03:29N 34°37' E 135°26'0 0.0
2016-Aug-24 02:29N 34°37' E 135°26'0 0.0
2016-Aug-24 01:23N 34°37' E 135°26'0 0.0
2016-Aug-24 00:29N 34°37' E 135°26'0 0.0
2016-Aug-23 23:29N 34°37' E 135°26'0 0.0
2016-Aug-23 22:23N 34°37' E 135°26'0 0.0
2016-Aug-23 21:23N 34°37' E 135°26'5 6.3
2016-Aug-23 20:33N 34°36' E 135°20'1918.7
2016-Aug-23 19:33N 34°36' E 134°57'1 0.0
2016-Aug-22 14:33N 34°36' E 134°56'1918.7
2016-Aug-22 13:34N 34°36' E 135°18'6 6.1
2016-Aug-22 12:33N 34°37' E 135°26'0 0.0
2016-Aug-22 11:33N 34°37' E 135°26'0 0.0
2016-Aug-22 10:21N 34°37' E 135°26'0 0.0
2016-Aug-22 09:33N 34°37' E 135°26'0 0.0
2016-Aug-22 08:33N 34°37' E 135°26'0 0.0
2016-Aug-22 06:33N 34°37' E 135°26'0 0.0
2016-Aug-22 05:27N 34°37' E 135°26'0 0.0
2016-Aug-22 04:33N 34°37' E 135°26'0 0.0
2016-Aug-22 03:21N 34°37' E 135°26'0 0.0
2016-Aug-22 02:09N 34°37' E 135°26'0 0.0
2016-Aug-22 01:27N 34°37' E 135°26'0 0.0
2016-Aug-22 00:15N 34°37' E 135°26'0 0.0
2016-Aug-21 23:27N 34°37' E 135°26'0 0.0
2016-Aug-21 22:27N 34°37' E 135°26'0 0.0
2016-Aug-21 21:33N 34°37' E 135°26'5 5.0
2016-Aug-21 20:34N 34°36' E 135°20'1716.8
2016-Aug-21 19:33N 34°37' E 134°60'3 0.1
2016-Aug-20 14:29N 34°37' E 134°56'1819.6
2016-Aug-20 13:33N 34°37' E 135°18'6 5.0
2016-Aug-20 12:16N 34°37' E 135°26'0 0.0
2016-Aug-20 11:28N 34°37' E 135°26'0 0.0
2016-Aug-20 10:28N 34°37' E 135°26'0 0.0
2016-Aug-20 09:28N 34°37' E 135°26'0 0.0
2016-Aug-20 08:28N 34°37' E 135°26'0 0.0
2016-Aug-20 07:28N 34°37' E 135°26'0 0.0
2016-Aug-20 06:28N 34°37' E 135°26'0 0.0
2016-Aug-20 05:28N 34°37' E 135°26'0 0.0
2016-Aug-20 04:28N 34°37' E 135°26'0 0.0
2016-Aug-20 03:28N 34°37' E 135°26'0 0.0
2016-Aug-20 02:28N 34°37' E 135°26'0 0.0
2016-Aug-20 01:28N 34°37' E 135°26'0 0.0
2016-Aug-20 00:28N 34°37' E 135°26'0 0.0
2016-Aug-19 23:28N 34°37' E 135°26'0 0.0
2016-Aug-19 22:28N 34°37' E 135°26'0 0.0
2016-Aug-19 21:11N 34°37' E 135°26'5 8.0
2016-Aug-19 20:33N 34°36' E 135°20'1817.7
2016-Aug-19 19:33N 34°37' E 134°58'2 0.1
2016-Aug-18 14:32N 34°37' E 134°56'1818.9
2016-Aug-18 13:34N 34°37' E 135°19'6 5.7
2016-Aug-18 12:30N 34°37' E 135°26'0 0.0
2016-Aug-18 11:30N 34°37' E 135°26'0 0.0
2016-Aug-18 08:24N 34°37' E 135°26'0 0.0
2016-Aug-18 07:24N 34°37' E 135°26'0 0.0
2016-Aug-18 06:30N 34°37' E 135°26'0 0.0
2016-Aug-18 05:30N 34°37' E 135°26'0 0.0
2016-Aug-18 04:24N 34°37' E 135°26'0 0.0
2016-Aug-18 03:24N 34°37' E 135°26'0 0.0
2016-Aug-18 02:18N 34°37' E 135°26'0 0.0
2016-Aug-18 01:24N 34°37' E 135°26'0 0.0
2016-Aug-18 00:30N 34°37' E 135°26'0 0.0
2016-Aug-17 23:18N 34°37' E 135°26'0 0.0
2016-Aug-17 22:30N 34°37' E 135°26'0 0.0
2016-Aug-17 21:24N 34°37' E 135°26'5 6.2
2016-Aug-17 20:33N 34°36' E 135°20'1716.7
2016-Aug-17 19:33N 34°37' E 134°59'1 0.1
2016-Aug-16 14:33N 34°37' E 134°57'1817.6
2016-Aug-16 13:33N 34°37' E 135°19'6 5.4
2016-Aug-16 12:28N 34°37' E 135°26'0 0.0
2016-Aug-16 11:28N 34°37' E 135°26'0 0.0
2016-Aug-16 10:22N 34°37' E 135°26'0 0.0
2016-Aug-16 09:22N 34°37' E 135°26'0 0.0
2016-Aug-16 08:28N 34°37' E 135°26'0 0.0
2016-Aug-16 07:28N 34°37' E 135°26'0 0.0
2016-Aug-16 04:28N 34°37' E 135°26'0 0.0
2016-Aug-16 03:28N 34°37' E 135°26'0 0.0
2016-Aug-16 02:22N 34°37' E 135°26'0 0.0
2016-Aug-16 01:16N 34°37' E 135°26'0 0.0
2016-Aug-16 00:28N 34°37' E 135°26'0 0.0
2016-Aug-15 23:28N 34°37' E 135°26'0 0.0
2016-Aug-15 22:16N 34°37' E 135°26'0 0.0
2016-Aug-15 21:28N 34°37' E 135°26'5 5.1
2016-Aug-15 20:33N 34°36' E 135°20'1716.9
2016-Aug-15 19:33N 34°37' E 134°60'2 0.1
2016-Aug-14 14:33N 34°37' E 134°57'1818.1
2016-Aug-14 13:33N 34°37' E 135°19'5 4.5
2016-Aug-14 12:23N 34°37' E 135°26'0 0.0
2016-Aug-14 10:29N 34°37' E 135°26'0 0.0
2016-Aug-14 09:29N 34°37' E 135°26'0 0.0
2016-Aug-14 07:29N 34°37' E 135°26'0 0.0
2016-Aug-14 06:29N 34°37' E 135°26'0 0.0
2016-Aug-14 04:29N 34°37' E 135°26'  
Track history (hours):
 
Tides and Currents Weather Stations Pressure Air Temp Water Temp Dewpoint Dewpoint Depression Visibility Wind Speed Wind Dir Waves Ship Positions

Orenge 7

Last reported at 2016-Aug-24 04:29 UTC. Time now 2016-Aug-24 06:46 UTC.
Position N 34°37' E 135°26'.

Length 163 m; draft 4.9 m.

Type: Passenger vessel. MMSI: 431500186.

Date/timePositionNaut miles runAvg speedWind from/ knotsBaromVisibWave heightAir tempDewpointWater temp
2016-Aug-24 04:29N 34°37' E 135°26'0 0.0
2016-Aug-24 03:29N 34°37' E 135°26'0 0.0
2016-Aug-24 02:29N 34°37' E 135°26'0 0.0
2016-Aug-24 01:23N 34°37' E 135°26'0 0.0
2016-Aug-24 00:29N 34°37' E 135°26'0 0.0
2016-Aug-23 23:29N 34°37' E 135°26'0 0.0
2016-Aug-23 22:23N 34°37' E 135°26'0 0.0
2016-Aug-23 21:23N 34°37' E 135°26'5 6.3
2016-Aug-23 20:33N 34°36' E 135°20'1918.7
2016-Aug-23 19:33N 34°36' E 134°57'1 0.0
2016-Aug-22 14:33N 34°36' E 134°56'1918.7
2016-Aug-22 13:34N 34°36' E 135°18'6 6.1
2016-Aug-22 12:33N 34°37' E 135°26'0 0.0
2016-Aug-22 11:33N 34°37' E 135°26'0 0.0
2016-Aug-22 10:21N 34°37' E 135°26'0 0.0
2016-Aug-22 09:33N 34°37' E 135°26'0 0.0
2016-Aug-22 08:33N 34°37' E 135°26'0 0.0
2016-Aug-22 06:33N 34°37' E 135°26'0 0.0
2016-Aug-22 05:27N 34°37' E 135°26'0 0.0
2016-Aug-22 04:33N 34°37' E 135°26'0 0.0
2016-Aug-22 03:21N 34°37' E 135°26'0 0.0
2016-Aug-22 02:09N 34°37' E 135°26'0 0.0
2016-Aug-22 01:27N 34°37' E 135°26'0 0.0
2016-Aug-22 00:15N 34°37' E 135°26'0 0.0
2016-Aug-21 23:27N 34°37' E 135°26'0 0.0
2016-Aug-21 22:27N 34°37' E 135°26'0 0.0
2016-Aug-21 21:33N 34°37' E 135°26'5 5.0
2016-Aug-21 20:34N 34°36' E 135°20'1716.8
2016-Aug-21 19:33N 34°37' E 134°60'3 0.1
2016-Aug-20 14:29N 34°37' E 134°56'1819.6
2016-Aug-20 13:33N 34°37' E 135°18'6 5.0
2016-Aug-20 12:16N 34°37' E 135°26'0 0.0
2016-Aug-20 11:28N 34°37' E 135°26'0 0.0
2016-Aug-20 10:28N 34°37' E 135°26'0 0.0
2016-Aug-20 09:28N 34°37' E 135°26'0 0.0
2016-Aug-20 08:28N 34°37' E 135°26'0 0.0
2016-Aug-20 07:28N 34°37' E 135°26'0 0.0
2016-Aug-20 06:28N 34°37' E 135°26'0 0.0
2016-Aug-20 05:28N 34°37' E 135°26'0 0.0
2016-Aug-20 04:28N 34°37' E 135°26'0 0.0
2016-Aug-20 03:28N 34°37' E 135°26'0 0.0
2016-Aug-20 02:28N 34°37' E 135°26'0 0.0
2016-Aug-20 01:28N 34°37' E 135°26'0 0.0
2016-Aug-20 00:28N 34°37' E 135°26'0 0.0
2016-Aug-19 23:28N 34°37' E 135°26'0 0.0
2016-Aug-19 22:28N 34°37' E 135°26'0 0.0
2016-Aug-19 21:11N 34°37' E 135°26'5 8.0
2016-Aug-19 20:33N 34°36' E 135°20'1817.7
2016-Aug-19 19:33N 34°37' E 134°58'2 0.1
2016-Aug-18 14:32N 34°37' E 134°56'1818.9
2016-Aug-18 13:34N 34°37' E 135°19'6 5.7
2016-Aug-18 12:30N 34°37' E 135°26'0 0.0
2016-Aug-18 11:30N 34°37' E 135°26'0 0.0
2016-Aug-18 08:24N 34°37' E 135°26'0 0.0
2016-Aug-18 07:24N 34°37' E 135°26'0 0.0
2016-Aug-18 06:30N 34°37' E 135°26'0 0.0
2016-Aug-18 05:30N 34°37' E 135°26'0 0.0
2016-Aug-18 04:24N 34°37' E 135°26'0 0.0
2016-Aug-18 03:24N 34°37' E 135°26'0 0.0
2016-Aug-18 02:18N 34°37' E 135°26'0 0.0
2016-Aug-18 01:24N 34°37' E 135°26'0 0.0
2016-Aug-18 00:30N 34°37' E 135°26'0 0.0
2016-Aug-17 23:18N 34°37' E 135°26'0 0.0
2016-Aug-17 22:30N 34°37' E 135°26'0 0.0
2016-Aug-17 21:24N 34°37' E 135°26'5 6.2
2016-Aug-17 20:33N 34°36' E 135°20'1716.7
2016-Aug-17 19:33N 34°37' E 134°59'1 0.1
2016-Aug-16 14:33N 34°37' E 134°57'1817.6
2016-Aug-16 13:33N 34°37' E 135°19'6 5.4
2016-Aug-16 12:28N 34°37' E 135°26'0 0.0
2016-Aug-16 11:28N 34°37' E 135°26'0 0.0
2016-Aug-16 10:22N 34°37' E 135°26'0 0.0
2016-Aug-16 09:22N 34°37' E 135°26'0 0.0
2016-Aug-16 08:28N 34°37' E 135°26'0 0.0
2016-Aug-16 07:28N 34°37' E 135°26'0 0.0
2016-Aug-16 04:28N 34°37' E 135°26'0 0.0
2016-Aug-16 03:28N 34°37' E 135°26'0 0.0
2016-Aug-16 02:22N 34°37' E 135°26'0 0.0
2016-Aug-16 01:16N 34°37' E 135°26'0 0.0
2016-Aug-16 00:28N 34°37' E 135°26'0 0.0
2016-Aug-15 23:28N 34°37' E 135°26'0 0.0
2016-Aug-15 22:16N 34°37' E 135°26'0 0.0
2016-Aug-15 21:28N 34°37' E 135°26'5 5.1
2016-Aug-15 20:33N 34°36' E 135°20'1716.9
2016-Aug-15 19:33N 34°37' E 134°60'2 0.1
2016-Aug-14 14:33N 34°37' E 134°57'1818.1
2016-Aug-14 13:33N 34°37' E 135°19'5 4.5
2016-Aug-14 12:23N 34°37' E 135°26'0 0.0
2016-Aug-14 10:29N 34°37' E 135°26'0 0.0
2016-Aug-14 09:29N 34°37' E 135°26'0 0.0
2016-Aug-14 07:29N 34°37' E 135°26'0 0.0
2016-Aug-14 06:29N 34°37' E 135°26'0 0.0
2016-Aug-14 04:29N 34°37' E 135°26'  

Dump ship's entire track history